sensor_id;sensor_type;location;lat;lon;timestamp;temperature;humidity
15906;DHT22;8051;50.820;4.884;2022-07-22T00:02:14;15.50;99.90
15906;DHT22;8051;50.820;4.884;2022-07-22T00:04:41;15.40;99.90
15906;DHT22;8051;50.820;4.884;2022-07-22T00:07:08;15.40;99.90
15906;DHT22;8051;50.820;4.884;2022-07-22T00:09:35;15.40;99.90
15906;DHT22;8051;50.820;4.884;2022-07-22T00:12:04;15.30;99.90
15906;DHT22;8051;50.820;4.884;2022-07-22T00:14:31;15.30;99.90
15906;DHT22;8051;50.820;4.884;2022-07-22T00:16:58;15.30;99.90
15906;DHT22;8051;50.820;4.884;2022-07-22T00:19:25;15.20;99.90
15906;DHT22;8051;50.820;4.884;2022-07-22T00:21:53;15.10;99.90
15906;DHT22;8051;50.820;4.884;2022-07-22T00:24:20;15.10;99.90
15906;DHT22;8051;50.820;4.884;2022-07-22T00:26:47;15.00;99.90
15906;DHT22;8051;50.820;4.884;2022-07-22T00:29:15;15.00;99.90
15906;DHT22;8051;50.820;4.884;2022-07-22T00:31:42;14.90;99.90
15906;DHT22;8051;50.820;4.884;2022-07-22T00:34:09;14.90;99.90
15906;DHT22;8051;50.820;4.884;2022-07-22T00:36:37;14.90;99.90
15906;DHT22;8051;50.820;4.884;2022-07-22T00:39:04;14.90;99.90
15906;DHT22;8051;50.820;4.884;2022-07-22T00:41:30;14.90;99.90
15906;DHT22;8051;50.820;4.884;2022-07-22T00:43:59;14.90;99.90
15906;DHT22;8051;50.820;4.884;2022-07-22T00:46:29;14.80;99.90
15906;DHT22;8051;50.820;4.884;2022-07-22T00:48:56;14.80;99.90
15906;DHT22;8051;50.820;4.884;2022-07-22T00:51:24;14.80;99.90
15906;DHT22;8051;50.820;4.884;2022-07-22T00:53:52;14.70;99.90
15906;DHT22;8051;50.820;4.884;2022-07-22T00:56:20;14.70;99.90
15906;DHT22;8051;50.820;4.884;2022-07-22T00:58:49;14.70;99.90
15906;DHT22;8051;50.820;4.884;2022-07-22T01:01:16;14.70;99.90
15906;DHT22;8051;50.820;4.884;2022-07-22T01:03:44;14.70;99.90
15906;DHT22;8051;50.820;4.884;2022-07-22T01:06:12;14.60;99.90
15906;DHT22;8051;50.820;4.884;2022-07-22T01:08:39;14.60;99.90
15906;DHT22;8051;50.820;4.884;2022-07-22T01:11:07;14.50;99.90
15906;DHT22;8051;50.820;4.884;2022-07-22T01:13:34;14.50;99.90
15906;DHT22;8051;50.820;4.884;2022-07-22T01:16:01;14.60;99.90
15906;DHT22;8051;50.820;4.884;2022-07-22T01:18:28;14.60;99.90
15906;DHT22;8051;50.820;4.884;2022-07-22T01:20:56;14.60;99.90
15906;DHT22;8051;50.820;4.884;2022-07-22T01:23:23;14.60;99.90
15906;DHT22;8051;50.820;4.884;2022-07-22T01:25:50;14.60;99.90
15906;DHT22;8051;50.820;4.884;2022-07-22T01:28:17;14.50;99.90
15906;DHT22;8051;50.820;4.884;2022-07-22T01:30:44;14.50;99.90
15906;DHT22;8051;50.820;4.884;2022-07-22T01:33:11;14.50;99.90
15906;DHT22;8051;50.820;4.884;2022-07-22T01:35:38;14.50;99.90
15906;DHT22;8051;50.820;4.884;2022-07-22T01:38:06;14.50;99.90
15906;DHT22;8051;50.820;4.884;2022-07-22T01:40:33;14.50;99.90
15906;DHT22;8051;50.820;4.884;2022-07-22T01:43:00;14.50;99.90
15906;DHT22;8051;50.820;4.884;2022-07-22T01:45:27;14.50;99.90
15906;DHT22;8051;50.820;4.884;2022-07-22T01:47:54;14.50;99.90
15906;DHT22;8051;50.820;4.884;2022-07-22T01:50:21;14.50;99.90
15906;DHT22;8051;50.820;4.884;2022-07-22T01:52:48;14.50;99.90
15906;DHT22;8051;50.820;4.884;2022-07-22T01:55:17;14.40;99.90
15906;DHT22;8051;50.820;4.884;2022-07-22T01:57:44;14.40;99.90
15906;DHT22;8051;50.820;4.884;2022-07-22T02:00:12;14.40;99.90
15906;DHT22;8051;50.820;4.884;2022-07-22T02:02:39;14.40;99.90
15906;DHT22;8051;50.820;4.884;2022-07-22T02:05:06;14.40;99.90
15906;DHT22;8051;50.820;4.884;2022-07-22T02:07:33;14.40;99.90
15906;DHT22;8051;50.820;4.884;2022-07-22T02:10:00;14.40;99.90
15906;DHT22;8051;50.820;4.884;2022-07-22T02:12:28;14.30;99.90
15906;DHT22;8051;50.820;4.884;2022-07-22T02:14:55;14.30;99.90
15906;DHT22;8051;50.820;4.884;2022-07-22T02:17:22;14.30;99.90
15906;DHT22;8051;50.820;4.884;2022-07-22T02:19:49;14.30;99.90
15906;DHT22;8051;50.820;4.884;2022-07-22T02:22:16;14.30;99.90
15906;DHT22;8051;50.820;4.884;2022-07-22T02:24:43;14.30;99.90
15906;DHT22;8051;50.820;4.884;2022-07-22T02:27:10;14.30;99.90
15906;DHT22;8051;50.820;4.884;2022-07-22T02:29:38;14.20;99.90
15906;DHT22;8051;50.820;4.884;2022-07-22T02:32:05;14.20;99.90
15906;DHT22;8051;50.820;4.884;2022-07-22T02:34:32;14.10;99.90
15906;DHT22;8051;50.820;4.884;2022-07-22T02:36:59;14.10;99.90
15906;DHT22;8051;50.820;4.884;2022-07-22T02:39:25;14.10;99.90
15906;DHT22;8051;50.820;4.884;2022-07-22T02:41:53;14.10;99.90
15906;DHT22;8051;50.820;4.884;2022-07-22T02:44:19;14.10;99.90
15906;DHT22;8051;50.820;4.884;2022-07-22T02:46:48;14.10;99.90
15906;DHT22;8051;50.820;4.884;2022-07-22T02:49:14;14.10;99.90
15906;DHT22;8051;50.820;4.884;2022-07-22T02:51:41;14.00;99.90
15906;DHT22;8051;50.820;4.884;2022-07-22T02:54:08;14.00;99.90
15906;DHT22;8051;50.820;4.884;2022-07-22T02:56:35;14.00;99.90
15906;DHT22;8051;50.820;4.884;2022-07-22T02:59:02;14.00;99.90
15906;DHT22;8051;50.820;4.884;2022-07-22T03:01:29;14.00;99.90
15906;DHT22;8051;50.820;4.884;2022-07-22T03:03:57;14.00;99.90
15906;DHT22;8051;50.820;4.884;2022-07-22T03:06:24;14.00;99.90
15906;DHT22;8051;50.820;4.884;2022-07-22T03:08:51;14.00;99.90
15906;DHT22;8051;50.820;4.884;2022-07-22T03:11:18;14.00;99.90
15906;DHT22;8051;50.820;4.884;2022-07-22T03:13:45;14.00;99.90
15906;DHT22;8051;50.820;4.884;2022-07-22T03:16:11;14.00;99.90
15906;DHT22;8051;50.820;4.884;2022-07-22T03:18:38;14.00;99.90
15906;DHT22;8051;50.820;4.884;2022-07-22T03:21:07;14.10;99.90
15906;DHT22;8051;50.820;4.884;2022-07-22T03:23:33;14.10;99.90
15906;DHT22;8051;50.820;4.884;2022-07-22T03:26:00;14.10;99.90
15906;DHT22;8051;50.820;4.884;2022-07-22T03:28:27;14.20;99.90
15906;DHT22;8051;50.820;4.884;2022-07-22T03:30:54;14.20;99.90
15906;DHT22;8051;50.820;4.884;2022-07-22T03:33:21;14.30;99.90
15906;DHT22;8051;50.820;4.884;2022-07-22T03:35:48;14.30;99.90
15906;DHT22;8051;50.820;4.884;2022-07-22T03:38:16;14.30;99.90
15906;DHT22;8051;50.820;4.884;2022-07-22T03:40:43;14.30;99.90
15906;DHT22;8051;50.820;4.884;2022-07-22T03:43:10;14.30;99.90
15906;DHT22;8051;50.820;4.884;2022-07-22T03:45:37;14.30;99.90
15906;DHT22;8051;50.820;4.884;2022-07-22T03:48:05;14.30;99.90
15906;DHT22;8051;50.820;4.884;2022-07-22T03:50:31;14.40;99.90
15906;DHT22;8051;50.820;4.884;2022-07-22T03:52:58;14.40;99.90
15906;DHT22;8051;50.820;4.884;2022-07-22T03:55:26;14.40;99.90
15906;DHT22;8051;50.820;4.884;2022-07-22T03:57:53;14.40;99.90
15906;DHT22;8051;50.820;4.884;2022-07-22T04:00:20;14.40;99.90
15906;DHT22;8051;50.820;4.884;2022-07-22T04:02:47;14.40;99.90
15906;DHT22;8051;50.820;4.884;2022-07-22T04:05:14;14.40;99.90
15906;DHT22;8051;50.820;4.884;2022-07-22T04:07:41;14.40;99.90
15906;DHT22;8051;50.820;4.884;2022-07-22T04:10:08;14.40;99.90
15906;DHT22;8051;50.820;4.884;2022-07-22T04:12:39;14.50;99.90
15906;DHT22;8051;50.820;4.884;2022-07-22T04:15:07;14.50;99.90
15906;DHT22;8051;50.820;4.884;2022-07-22T04:17:34;14.50;99.90
15906;DHT22;8051;50.820;4.884;2022-07-22T04:20:02;14.40;99.90
15906;DHT22;8051;50.820;4.884;2022-07-22T04:22:29;14.40;99.90
15906;DHT22;8051;50.820;4.884;2022-07-22T04:24:56;14.40;99.90
15906;DHT22;8051;50.820;4.884;2022-07-22T04:27:23;14.50;99.90
15906;DHT22;8051;50.820;4.884;2022-07-22T04:29:51;14.60;99.90
15906;DHT22;8051;50.820;4.884;2022-07-22T04:32:18;14.80;99.90
15906;DHT22;8051;50.820;4.884;2022-07-22T04:34:45;14.90;99.90
15906;DHT22;8051;50.820;4.884;2022-07-22T04:37:12;15.10;99.90
15906;DHT22;8051;50.820;4.884;2022-07-22T04:39:39;15.30;99.90
15906;DHT22;8051;50.820;4.884;2022-07-22T04:42:06;15.50;99.90
15906;DHT22;8051;50.820;4.884;2022-07-22T04:44:33;15.60;99.90
15906;DHT22;8051;50.820;4.884;2022-07-22T04:47:01;15.70;99.90
15906;DHT22;8051;50.820;4.884;2022-07-22T04:49:28;15.80;99.90
15906;DHT22;8051;50.820;4.884;2022-07-22T04:51:55;15.90;99.90
15906;DHT22;8051;50.820;4.884;2022-07-22T04:54:22;16.10;99.90
15906;DHT22;8051;50.820;4.884;2022-07-22T04:56:49;16.30;99.90
15906;DHT22;8051;50.820;4.884;2022-07-22T04:59:16;16.60;99.90
15906;DHT22;8051;50.820;4.884;2022-07-22T05:01:42;16.80;99.90
15906;DHT22;8051;50.820;4.884;2022-07-22T05:04:11;16.80;99.90
15906;DHT22;8051;50.820;4.884;2022-07-22T05:06:38;17.00;99.90
15906;DHT22;8051;50.820;4.884;2022-07-22T05:09:05;17.10;99.90
15906;DHT22;8051;50.820;4.884;2022-07-22T05:11:32;17.20;99.90
15906;DHT22;8051;50.820;4.884;2022-07-22T05:13:59;17.30;99.90
15906;DHT22;8051;50.820;4.884;2022-07-22T05:16:26;17.40;99.90
15906;DHT22;8051;50.820;4.884;2022-07-22T05:18:53;17.50;99.90
15906;DHT22;8051;50.820;4.884;2022-07-22T05:21:21;17.80;99.90
15906;DHT22;8051;50.820;4.884;2022-07-22T05:23:48;17.90;99.90
15906;DHT22;8051;50.820;4.884;2022-07-22T05:26:15;18.10;99.90
15906;DHT22;8051;50.820;4.884;2022-07-22T05:28:42;18.20;99.90
15906;DHT22;8051;50.820;4.884;2022-07-22T05:31:09;18.50;99.90
15906;DHT22;8051;50.820;4.884;2022-07-22T05:33:36;18.70;99.90
15906;DHT22;8051;50.820;4.884;2022-07-22T05:36:03;19.00;99.90
15906;DHT22;8051;50.820;4.884;2022-07-22T05:38:33;19.00;99.90
15906;DHT22;8051;50.820;4.884;2022-07-22T05:41:00;18.60;99.90
15906;DHT22;8051;50.820;4.884;2022-07-22T05:43:27;18.40;99.90
15906;DHT22;8051;50.820;4.884;2022-07-22T05:45:54;18.40;99.90
15906;DHT22;8051;50.820;4.884;2022-07-22T05:48:21;18.50;99.90
15906;DHT22;8051;50.820;4.884;2022-07-22T05:50:48;18.70;99.90
15906;DHT22;8051;50.820;4.884;2022-07-22T05:53:15;18.70;99.90
15906;DHT22;8051;50.820;4.884;2022-07-22T05:55:43;18.70;99.90
15906;DHT22;8051;50.820;4.884;2022-07-22T05:58:10;18.80;99.90
15906;DHT22;8051;50.820;4.884;2022-07-22T06:00:37;18.80;99.90
15906;DHT22;8051;50.820;4.884;2022-07-22T06:03:05;18.90;99.90
15906;DHT22;8051;50.820;4.884;2022-07-22T06:05:32;18.70;99.90
15906;DHT22;8051;50.820;4.884;2022-07-22T06:08:00;18.80;99.90
15906;DHT22;8051;50.820;4.884;2022-07-22T06:10:27;18.60;99.90
15906;DHT22;8051;50.820;4.884;2022-07-22T06:12:56;18.50;99.90
15906;DHT22;8051;50.820;4.884;2022-07-22T06:15:23;18.40;99.90
15906;DHT22;8051;50.820;4.884;2022-07-22T06:17:50;18.60;99.90
15906;DHT22;8051;50.820;4.884;2022-07-22T06:20:17;18.70;99.90
15906;DHT22;8051;50.820;4.884;2022-07-22T06:22:43;18.60;99.90
15906;DHT22;8051;50.820;4.884;2022-07-22T06:25:10;18.40;99.90
15906;DHT22;8051;50.820;4.884;2022-07-22T06:27:38;18.40;99.90
15906;DHT22;8051;50.820;4.884;2022-07-22T06:30:07;18.40;99.90
15906;DHT22;8051;50.820;4.884;2022-07-22T06:32:34;18.20;99.90
15906;DHT22;8051;50.820;4.884;2022-07-22T06:35:01;18.20;99.90
15906;DHT22;8051;50.820;4.884;2022-07-22T06:37:28;18.30;99.90
15906;DHT22;8051;50.820;4.884;2022-07-22T06:39:55;18.30;99.90
15906;DHT22;8051;50.820;4.884;2022-07-22T06:42:22;18.20;99.90
15906;DHT22;8051;50.820;4.884;2022-07-22T06:44:49;18.20;99.90
15906;DHT22;8051;50.820;4.884;2022-07-22T06:47:18;18.10;99.90
15906;DHT22;8051;50.820;4.884;2022-07-22T06:49:45;18.10;99.90
15906;DHT22;8051;50.820;4.884;2022-07-22T06:52:12;18.30;99.90
15906;DHT22;8051;50.820;4.884;2022-07-22T06:54:39;18.50;99.90
15906;DHT22;8051;50.820;4.884;2022-07-22T06:57:05;18.50;99.90
15906;DHT22;8051;50.820;4.884;2022-07-22T06:59:32;18.60;99.90
15906;DHT22;8051;50.820;4.884;2022-07-22T07:01:59;18.80;99.90
15906;DHT22;8051;50.820;4.884;2022-07-22T07:04:27;19.00;99.90
15906;DHT22;8051;50.820;4.884;2022-07-22T07:06:55;19.10;99.90
15906;DHT22;8051;50.820;4.884;2022-07-22T07:09:22;19.10;99.90
15906;DHT22;8051;50.820;4.884;2022-07-22T07:11:48;19.10;99.90
15906;DHT22;8051;50.820;4.884;2022-07-22T07:14:15;19.00;99.90
15906;DHT22;8051;50.820;4.884;2022-07-22T07:16:42;19.20;99.90
15906;DHT22;8051;50.820;4.884;2022-07-22T07:19:09;19.40;99.90
15906;DHT22;8051;50.820;4.884;2022-07-22T07:21:37;19.30;99.90
15906;DHT22;8051;50.820;4.884;2022-07-22T07:24:05;19.30;99.90
15906;DHT22;8051;50.820;4.884;2022-07-22T07:26:32;19.10;99.90
15906;DHT22;8051;50.820;4.884;2022-07-22T07:28:58;18.90;99.90
15906;DHT22;8051;50.820;4.884;2022-07-22T07:31:25;18.90;99.90
15906;DHT22;8051;50.820;4.884;2022-07-22T07:33:52;18.90;99.90
15906;DHT22;8051;50.820;4.884;2022-07-22T07:36:19;19.10;99.90
15906;DHT22;8051;50.820;4.884;2022-07-22T07:38:48;19.30;99.90
15906;DHT22;8051;50.820;4.884;2022-07-22T07:41:15;19.50;99.90
15906;DHT22;8051;50.820;4.884;2022-07-22T07:43:42;19.40;99.90
15906;DHT22;8051;50.820;4.884;2022-07-22T07:46:10;19.80;99.90
15906;DHT22;8051;50.820;4.884;2022-07-22T07:48:39;20.00;99.90
15906;DHT22;8051;50.820;4.884;2022-07-22T07:51:06;19.70;99.90
15906;DHT22;8051;50.820;4.884;2022-07-22T07:53:33;19.70;99.90
15906;DHT22;8051;50.820;4.884;2022-07-22T07:56:02;19.80;99.90
15906;DHT22;8051;50.820;4.884;2022-07-22T07:58:29;20.00;99.90
15906;DHT22;8051;50.820;4.884;2022-07-22T08:00:56;19.90;99.90
15906;DHT22;8051;50.820;4.884;2022-07-22T08:03:23;20.00;99.90
15906;DHT22;8051;50.820;4.884;2022-07-22T08:05:50;20.00;99.90
15906;DHT22;8051;50.820;4.884;2022-07-22T08:08:17;20.10;99.90
15906;DHT22;8051;50.820;4.884;2022-07-22T08:10:43;20.00;99.90
15906;DHT22;8051;50.820;4.884;2022-07-22T08:13:12;20.20;99.90
15906;DHT22;8051;50.820;4.884;2022-07-22T08:15:39;20.40;99.90
15906;DHT22;8051;50.820;4.884;2022-07-22T08:18:06;20.50;99.90
15906;DHT22;8051;50.820;4.884;2022-07-22T08:20:33;20.70;99.90
15906;DHT22;8051;50.820;4.884;2022-07-22T08:23:00;20.90;99.90
15906;DHT22;8051;50.820;4.884;2022-07-22T08:25:27;21.00;99.90
15906;DHT22;8051;50.820;4.884;2022-07-22T08:27:54;21.40;99.90
15906;DHT22;8051;50.820;4.884;2022-07-22T08:30:23;21.40;99.90
15906;DHT22;8051;50.820;4.884;2022-07-22T08:32:52;21.50;99.90
15906;DHT22;8051;50.820;4.884;2022-07-22T08:35:20;21.40;99.90
15906;DHT22;8051;50.820;4.884;2022-07-22T08:37:47;21.40;99.90
15906;DHT22;8051;50.820;4.884;2022-07-22T08:40:16;21.50;99.90
15906;DHT22;8051;50.820;4.884;2022-07-22T08:42:45;21.30;99.90
15906;DHT22;8051;50.820;4.884;2022-07-22T08:45:12;21.00;99.90
15906;DHT22;8051;50.820;4.884;2022-07-22T08:47:43;21.00;99.90
15906;DHT22;8051;50.820;4.884;2022-07-22T08:50:10;21.00;99.90
15906;DHT22;8051;50.820;4.884;2022-07-22T08:52:37;21.00;99.90
15906;DHT22;8051;50.820;4.884;2022-07-22T08:55:06;21.00;99.90
15906;DHT22;8051;50.820;4.884;2022-07-22T08:57:33;20.90;99.90
15906;DHT22;8051;50.820;4.884;2022-07-22T09:00:01;20.80;99.90
15906;DHT22;8051;50.820;4.884;2022-07-22T09:02:36;20.60;99.90
15906;DHT22;8051;50.820;4.884;2022-07-22T09:05:07;20.60;99.90
15906;DHT22;8051;50.820;4.884;2022-07-22T09:07:35;20.70;99.90
15906;DHT22;8051;50.820;4.884;2022-07-22T09:10:05;20.90;99.90
15906;DHT22;8051;50.820;4.884;2022-07-22T09:12:32;20.90;99.90
15906;DHT22;8051;50.820;4.884;2022-07-22T09:15:02;20.90;99.90
15906;DHT22;8051;50.820;4.884;2022-07-22T09:17:31;20.80;99.90
15906;DHT22;8051;50.820;4.884;2022-07-22T09:20:00;20.80;99.90
15906;DHT22;8051;50.820;4.884;2022-07-22T09:22:38;20.80;99.90
15906;DHT22;8051;50.820;4.884;2022-07-22T09:25:27;20.90;99.90
15906;DHT22;8051;50.820;4.884;2022-07-22T09:27:56;21.30;99.90
15906;DHT22;8051;50.820;4.884;2022-07-22T09:30:36;21.50;99.90
15906;DHT22;8051;50.820;4.884;2022-07-22T09:33:04;21.90;99.90
15906;DHT22;8051;50.820;4.884;2022-07-22T09:35:31;21.90;99.90
15906;DHT22;8051;50.820;4.884;2022-07-22T09:38:01;21.80;99.90
15906;DHT22;8051;50.820;4.884;2022-07-22T09:40:31;22.10;99.90
15906;DHT22;8051;50.820;4.884;2022-07-22T09:43:01;22.10;99.90
15906;DHT22;8051;50.820;4.884;2022-07-22T09:45:31;22.30;99.90
15906;DHT22;8051;50.820;4.884;2022-07-22T09:48:00;22.40;99.90
15906;DHT22;8051;50.820;4.884;2022-07-22T09:50:29;22.70;99.90
15906;DHT22;8051;50.820;4.884;2022-07-22T09:52:57;22.90;99.90
15906;DHT22;8051;50.820;4.884;2022-07-22T09:55:27;23.10;99.90
15906;DHT22;8051;50.820;4.884;2022-07-22T09:57:56;22.90;99.90
15906;DHT22;8051;50.820;4.884;2022-07-22T10:00:24;23.40;99.90
15906;DHT22;8051;50.820;4.884;2022-07-22T10:02:53;23.70;99.90
15906;DHT22;8051;50.820;4.884;2022-07-22T10:05:22;23.10;99.90
15906;DHT22;8051;50.820;4.884;2022-07-22T10:07:50;23.30;99.90
15906;DHT22;8051;50.820;4.884;2022-07-22T10:10:19;23.10;99.90
15906;DHT22;8051;50.820;4.884;2022-07-22T10:12:49;23.30;99.90
15906;DHT22;8051;50.820;4.884;2022-07-22T10:15:17;23.40;99.90
15906;DHT22;8051;50.820;4.884;2022-07-22T10:17:46;23.40;99.90
15906;DHT22;8051;50.820;4.884;2022-07-22T10:20:17;24.00;99.90
15906;DHT22;8051;50.820;4.884;2022-07-22T10:22:52;23.80;99.90
15906;DHT22;8051;50.820;4.884;2022-07-22T10:25:22;23.20;99.90
15906;DHT22;8051;50.820;4.884;2022-07-22T10:27:53;22.70;99.90
15906;DHT22;8051;50.820;4.884;2022-07-22T10:30:22;22.90;99.90
15906;DHT22;8051;50.820;4.884;2022-07-22T10:33:08;22.90;99.90
15906;DHT22;8051;50.820;4.884;2022-07-22T10:35:36;23.00;99.90
15906;DHT22;8051;50.820;4.884;2022-07-22T10:38:05;22.90;99.90
15906;DHT22;8051;50.820;4.884;2022-07-22T10:40:50;23.20;99.90
15906;DHT22;8051;50.820;4.884;2022-07-22T10:43:19;23.30;99.90
15906;DHT22;8051;50.820;4.884;2022-07-22T10:45:48;23.50;99.90
15906;DHT22;8051;50.820;4.884;2022-07-22T10:48:18;23.50;99.90
15906;DHT22;8051;50.820;4.884;2022-07-22T10:50:51;23.30;99.90
15906;DHT22;8051;50.820;4.884;2022-07-22T10:53:22;23.30;99.90
15906;DHT22;8051;50.820;4.884;2022-07-22T10:56:05;22.90;99.90
15906;DHT22;8051;50.820;4.884;2022-07-22T10:58:49;22.90;99.90
15906;DHT22;8051;50.820;4.884;2022-07-22T11:01:19;22.90;99.90
15906;DHT22;8051;50.820;4.884;2022-07-22T11:03:48;22.70;99.90
15906;DHT22;8051;50.820;4.884;2022-07-22T11:06:17;23.00;99.90
15906;DHT22;8051;50.820;4.884;2022-07-22T11:08:46;23.10;99.90
15906;DHT22;8051;50.820;4.884;2022-07-22T11:11:14;23.30;99.90
15906;DHT22;8051;50.820;4.884;2022-07-22T11:13:42;23.20;99.90
15906;DHT22;8051;50.820;4.884;2022-07-22T11:16:23;23.00;99.90
15906;DHT22;8051;50.820;4.884;2022-07-22T11:18:52;23.10;99.90
15906;DHT22;8051;50.820;4.884;2022-07-22T11:21:21;23.30;99.90
15906;DHT22;8051;50.820;4.884;2022-07-22T11:23:50;23.50;99.90
15906;DHT22;8051;50.820;4.884;2022-07-22T11:26:21;23.50;99.90
15906;DHT22;8051;50.820;4.884;2022-07-22T11:28:51;23.10;99.90
15906;DHT22;8051;50.820;4.884;2022-07-22T11:31:19;23.20;99.90
15906;DHT22;8051;50.820;4.884;2022-07-22T11:33:47;23.40;99.90
15906;DHT22;8051;50.820;4.884;2022-07-22T11:36:14;23.70;99.90
15906;DHT22;8051;50.820;4.884;2022-07-22T11:38:47;23.80;99.90
15906;DHT22;8051;50.820;4.884;2022-07-22T11:41:16;23.70;99.90
15906;DHT22;8051;50.820;4.884;2022-07-22T11:43:45;23.60;99.90
15906;DHT22;8051;50.820;4.884;2022-07-22T11:46:12;24.00;99.90
15906;DHT22;8051;50.820;4.884;2022-07-22T11:48:42;24.10;99.90
15906;DHT22;8051;50.820;4.884;2022-07-22T11:51:11;24.20;99.90
15906;DHT22;8051;50.820;4.884;2022-07-22T11:53:40;24.40;99.90
15906;DHT22;8051;50.820;4.884;2022-07-22T11:56:09;24.80;99.90
15906;DHT22;8051;50.820;4.884;2022-07-22T11:58:41;24.50;99.90
15906;DHT22;8051;50.820;4.884;2022-07-22T12:01:10;24.40;99.90
15906;DHT22;8051;50.820;4.884;2022-07-22T12:03:39;24.60;99.90
15906;DHT22;8051;50.820;4.884;2022-07-22T12:06:09;24.80;99.90
15906;DHT22;8051;50.820;4.884;2022-07-22T12:08:40;24.70;99.90
15906;DHT22;8051;50.820;4.884;2022-07-22T12:11:09;25.10;99.90
15906;DHT22;8051;50.820;4.884;2022-07-22T12:13:36;25.40;99.90
15906;DHT22;8051;50.820;4.884;2022-07-22T12:16:17;25.20;99.90
15906;DHT22;8051;50.820;4.884;2022-07-22T12:18:50;25.00;99.90
15906;DHT22;8051;50.820;4.884;2022-07-22T12:21:19;25.10;99.90
15906;DHT22;8051;50.820;4.884;2022-07-22T12:23:51;24.80;99.90
15906;DHT22;8051;50.820;4.884;2022-07-22T12:26:19;24.90;99.90
15906;DHT22;8051;50.820;4.884;2022-07-22T12:28:46;25.20;99.90
15906;DHT22;8051;50.820;4.884;2022-07-22T12:31:13;25.20;99.90
15906;DHT22;8051;50.820;4.884;2022-07-22T12:33:49;25.20;99.90
15906;DHT22;8051;50.820;4.884;2022-07-22T12:36:16;24.90;99.90
15906;DHT22;8051;50.820;4.884;2022-07-22T12:38:44;25.00;99.90
15906;DHT22;8051;50.820;4.884;2022-07-22T12:41:24;25.10;99.90
15906;DHT22;8051;50.820;4.884;2022-07-22T12:43:52;25.10;99.90
15906;DHT22;8051;50.820;4.884;2022-07-22T12:46:19;25.50;99.90
15906;DHT22;8051;50.820;4.884;2022-07-22T12:48:51;25.90;99.90
15906;DHT22;8051;50.820;4.884;2022-07-22T12:51:18;26.30;99.90
15906;DHT22;8051;50.820;4.884;2022-07-22T12:53:47;26.60;99.90
15906;DHT22;8051;50.820;4.884;2022-07-22T12:56:14;26.80;99.90
15906;DHT22;8051;50.820;4.884;2022-07-22T12:58:41;26.30;99.90
15906;DHT22;8051;50.820;4.884;2022-07-22T13:01:08;25.80;99.90
15906;DHT22;8051;50.820;4.884;2022-07-22T13:03:35;25.60;99.90
15906;DHT22;8051;50.820;4.884;2022-07-22T13:06:04;25.50;99.90
15906;DHT22;8051;50.820;4.884;2022-07-22T13:08:31;25.50;99.90
15906;DHT22;8051;50.820;4.884;2022-07-22T13:10:59;25.70;99.90
15906;DHT22;8051;50.820;4.884;2022-07-22T13:13:26;25.60;99.90
15906;DHT22;8051;50.820;4.884;2022-07-22T13:15:53;25.70;99.90
15906;DHT22;8051;50.820;4.884;2022-07-22T13:18:20;25.80;99.90
15906;DHT22;8051;50.820;4.884;2022-07-22T13:20:47;25.80;99.90
15906;DHT22;8051;50.820;4.884;2022-07-22T13:23:14;25.90;99.90
15906;DHT22;8051;50.820;4.884;2022-07-22T13:25:41;25.50;99.90
15906;DHT22;8051;50.820;4.884;2022-07-22T13:28:09;25.60;99.90
15906;DHT22;8051;50.820;4.884;2022-07-22T13:30:37;25.90;99.90
15906;DHT22;8051;50.820;4.884;2022-07-22T13:33:03;26.10;99.90
15906;DHT22;8051;50.820;4.884;2022-07-22T13:35:30;25.90;99.90
15906;DHT22;8051;50.820;4.884;2022-07-22T13:37:57;25.70;99.90
15906;DHT22;8051;50.820;4.884;2022-07-22T13:40:25;25.80;99.90
15906;DHT22;8051;50.820;4.884;2022-07-22T13:42:52;25.80;99.90
15906;DHT22;8051;50.820;4.884;2022-07-22T13:45:20;25.90;99.90
15906;DHT22;8051;50.820;4.884;2022-07-22T13:47:47;26.10;99.90
15906;DHT22;8051;50.820;4.884;2022-07-22T13:50:14;26.40;99.90
15906;DHT22;8051;50.820;4.884;2022-07-22T13:52:41;26.40;99.90
15906;DHT22;8051;50.820;4.884;2022-07-22T13:55:11;26.20;99.90
15906;DHT22;8051;50.820;4.884;2022-07-22T13:57:39;25.80;99.90
15906;DHT22;8051;50.820;4.884;2022-07-22T14:00:08;25.50;99.90
15906;DHT22;8051;50.820;4.884;2022-07-22T14:02:37;25.90;99.90
15906;DHT22;8051;50.820;4.884;2022-07-22T14:05:04;26.10;99.90
15906;DHT22;8051;50.820;4.884;2022-07-22T14:07:31;26.10;99.90
15906;DHT22;8051;50.820;4.884;2022-07-22T14:09:58;25.70;99.90
15906;DHT22;8051;50.820;4.884;2022-07-22T14:12:25;25.50;99.90
15906;DHT22;8051;50.820;4.884;2022-07-22T14:14:52;25.50;99.90
15906;DHT22;8051;50.820;4.884;2022-07-22T14:17:19;25.70;99.90
15906;DHT22;8051;50.820;4.884;2022-07-22T14:19:47;26.20;99.90
15906;DHT22;8051;50.820;4.884;2022-07-22T14:22:14;26.60;99.90
15906;DHT22;8051;50.820;4.884;2022-07-22T14:24:41;26.80;99.90
15906;DHT22;8051;50.820;4.884;2022-07-22T14:27:08;26.20;99.90
15906;DHT22;8051;50.820;4.884;2022-07-22T14:29:35;26.30;99.90
15906;DHT22;8051;50.820;4.884;2022-07-22T14:32:02;26.10;99.90
15906;DHT22;8051;50.820;4.884;2022-07-22T14:34:29;25.90;99.90
15906;DHT22;8051;50.820;4.884;2022-07-22T14:36:57;26.00;99.90
15906;DHT22;8051;50.820;4.884;2022-07-22T14:39:24;25.90;99.90
15906;DHT22;8051;50.820;4.884;2022-07-22T14:41:50;25.60;99.90
15906;DHT22;8051;50.820;4.884;2022-07-22T14:44:17;25.60;99.90
15906;DHT22;8051;50.820;4.884;2022-07-22T14:46:44;25.40;99.90
15906;DHT22;8051;50.820;4.884;2022-07-22T14:49:11;25.10;99.90
15906;DHT22;8051;50.820;4.884;2022-07-22T14:51:39;25.00;99.90
15906;DHT22;8051;50.820;4.884;2022-07-22T14:54:08;25.10;99.90
15906;DHT22;8051;50.820;4.884;2022-07-22T14:56:37;25.40;99.90
15906;DHT22;8051;50.820;4.884;2022-07-22T14:59:03;25.70;99.90
15906;DHT22;8051;50.820;4.884;2022-07-22T15:01:31;26.10;99.90
15906;DHT22;8051;50.820;4.884;2022-07-22T15:03:58;26.40;99.90
15906;DHT22;8051;50.820;4.884;2022-07-22T15:06:24;25.90;99.90
15906;DHT22;8051;50.820;4.884;2022-07-22T15:08:52;25.70;99.90
15906;DHT22;8051;50.820;4.884;2022-07-22T15:11:20;25.50;99.90
15906;DHT22;8051;50.820;4.884;2022-07-22T15:13:47;25.60;99.90
15906;DHT22;8051;50.820;4.884;2022-07-22T15:16:14;25.60;99.90
15906;DHT22;8051;50.820;4.884;2022-07-22T15:18:40;25.30;99.90
15906;DHT22;8051;50.820;4.884;2022-07-22T15:21:07;25.60;99.90
15906;DHT22;8051;50.820;4.884;2022-07-22T15:23:34;25.50;99.90
15906;DHT22;8051;50.820;4.884;2022-07-22T15:26:01;25.60;99.90
15906;DHT22;8051;50.820;4.884;2022-07-22T15:28:30;25.30;99.90
15906;DHT22;8051;50.820;4.884;2022-07-22T15:30:57;25.00;99.90
15906;DHT22;8051;50.820;4.884;2022-07-22T15:33:24;24.70;99.90
15906;DHT22;8051;50.820;4.884;2022-07-22T15:35:51;24.40;99.90
15906;DHT22;8051;50.820;4.884;2022-07-22T15:38:18;24.10;99.90
15906;DHT22;8051;50.820;4.884;2022-07-22T15:40:45;24.10;99.90
15906;DHT22;8051;50.820;4.884;2022-07-22T15:43:12;24.20;99.90
15906;DHT22;8051;50.820;4.884;2022-07-22T15:45:40;24.10;99.90
15906;DHT22;8051;50.820;4.884;2022-07-22T15:48:07;23.90;99.90
15906;DHT22;8051;50.820;4.884;2022-07-22T15:50:34;23.90;99.90